EXS3LF LIEO-EGBB
Flight info
| Callsign | EXS3LF |
|---|---|
| Flight time | 2h 26m |
| Altitude | 38000 |
| Route | OLBEK DCT IBROS DCT BEGUD DCT BETEN DCT SPEZI DCT DESIP DCT PEPAG DCT ABESI DCT UTAVO DCT HOC DCT LUL DCT RLP DCT ROTSI DCT KOTUN DCT NINAL DCT ABNUR DCT DIMAL DCT ALESO T420 HEMEL |
| Aircraft | B738/M-SDE2E3FGHIRWXY/LB1 |
Departure
| Time | 2026-05-07 20:25 |
|---|---|
| Airport | Olbia Costa Smeralda Airport (LIEO) |
Arrival
| Time | 2026-05-07 22:52 |
|---|---|
| Airport | Birmingham Airport (EGBB) |
| Time | Latitude | Longitude | Altitude | Speed | Heading |
|---|---|---|---|---|---|
| 2026-05-07 20:07 | 40.90223 | 9.51619 | 32 ft | 0 kts | 325° |
| 2026-05-07 20:14 | 40.90221 | 9.51620 | 31 ft | 2 kts | 325° |
| 2026-05-07 20:14 | 40.90199 | 9.51637 | 31 ft | 4 kts | 341° |
| 2026-05-07 20:14 | 40.90174 | 9.51643 | 32 ft | 4 kts | 10° |
| 2026-05-07 20:14 | 40.90153 | 9.51630 | 31 ft | 2 kts | 54° |
| 2026-05-07 20:15 | 40.90152 | 9.51628 | 32 ft | 0 kts | 55° |
| 2026-05-07 20:19 | 40.90160 | 9.51644 | 32 ft | 7 kts | 56° |
| 2026-05-07 20:19 | 40.90190 | 9.51702 | 33 ft | 8 kts | 56° |
| 2026-05-07 20:20 | 40.90220 | 9.51760 | 33 ft | 7 kts | 60° |
| 2026-05-07 20:20 | 40.90198 | 9.51816 | 33 ft | 7 kts | 132° |
| 2026-05-07 20:20 | 40.90180 | 9.51885 | 33 ft | 10 kts | 103° |
| 2026-05-07 20:20 | 40.90183 | 9.51979 | 33 ft | 10 kts | 60° |
| 2026-05-07 20:21 | 40.90224 | 9.52056 | 33 ft | 10 kts | 54° |
| 2026-05-07 20:21 | 40.90265 | 9.52132 | 33 ft | 10 kts | 55° |
| 2026-05-07 20:21 | 40.90304 | 9.52205 | 33 ft | 10 kts | 55° |
| 2026-05-07 20:21 | 40.90341 | 9.52279 | 33 ft | 10 kts | 56° |
| 2026-05-07 20:22 | 40.90384 | 9.52362 | 33 ft | 11 kts | 54° |
| 2026-05-07 20:22 | 40.90428 | 9.52444 | 33 ft | 11 kts | 55° |
| 2026-05-07 20:22 | 40.90470 | 9.52523 | 33 ft | 10 kts | 55° |
| 2026-05-07 20:22 | 40.90517 | 9.52612 | 33 ft | 15 kts | 55° |
| 2026-05-07 20:23 | 40.90582 | 9.52736 | 33 ft | 16 kts | 55° |
| 2026-05-07 20:23 | 40.90644 | 9.52857 | 33 ft | 16 kts | 56° |
| 2026-05-07 20:23 | 40.90703 | 9.52973 | 32 ft | 15 kts | 56° |
| 2026-05-07 20:23 | 40.90743 | 9.53097 | 33 ft | 14 kts | 78° |
| 2026-05-07 20:24 | 40.90747 | 9.53224 | 31 ft | 14 kts | 116° |
| 2026-05-07 20:24 | 40.90672 | 9.53284 | 34 ft | 13 kts | 202° |
| 2026-05-07 20:24 | 40.90613 | 9.53189 | 32 ft | 16 kts | 235° |
| 2026-05-07 20:24 | 40.90431 | 9.52845 | 32 ft | 84 kts | 233° |
| 2026-05-07 20:25 | 40.90223 | 9.52449 | 34 ft | 121 kts | 234° |
| 2026-05-07 20:25 | 40.89774 | 9.51589 | 52 ft | 168 kts | 235° |
| 2026-05-07 20:25 | 40.89072 | 9.50244 | 633 ft | 187 kts | 237° |
| 2026-05-07 20:25 | 40.88347 | 9.48750 | 1480 ft | 193 kts | 236° |
| 2026-05-07 20:26 | 40.87557 | 9.47243 | 2190 ft | 210 kts | 234° |
| 2026-05-07 20:26 | 40.86671 | 9.45578 | 2513 ft | 229 kts | 234° |
| 2026-05-07 20:26 | 40.85742 | 9.43831 | 3092 ft | 235 kts | 235° |
| 2026-05-07 20:26 | 40.84793 | 9.42043 | 3789 ft | 239 kts | 235° |
| 2026-05-07 20:27 | 40.83866 | 9.40254 | 4602 ft | 239 kts | 241° |
| 2026-05-07 20:27 | 40.83465 | 9.38154 | 5342 ft | 240 kts | 276° |
| 2026-05-07 20:27 | 40.84017 | 9.36065 | 5889 ft | 252 kts | 307° |
| 2026-05-07 20:27 | 40.85423 | 9.34574 | 6231 ft | 270 kts | 334° |
| 2026-05-07 20:28 | 40.87141 | 9.33480 | 6914 ft | 277 kts | 335° |
| 2026-05-07 20:28 | 40.88893 | 9.32394 | 7710 ft | 279 kts | 335° |
| 2026-05-07 20:28 | 40.90656 | 9.31295 | 8491 ft | 282 kts | 335° |
| 2026-05-07 20:28 | 40.92440 | 9.30171 | 9236 ft | 285 kts | 335° |
| 2026-05-07 20:29 | 40.94244 | 9.29023 | 9991 ft | 289 kts | 335° |
| 2026-05-07 20:29 | 40.96089 | 9.27841 | 10446 ft | 305 kts | 335° |
| 2026-05-07 20:29 | 40.98070 | 9.26567 | 10623 ft | 328 kts | 335° |
| 2026-05-07 20:29 | 41.00231 | 9.25399 | 11020 ft | 341 kts | 349° |
| 2026-05-07 20:30 | 41.02596 | 9.25395 | 11672 ft | 343 kts | 14° |
| 2026-05-07 20:30 | 41.04764 | 9.26681 | 12402 ft | 344 kts | 37° |
| 2026-05-07 20:30 | 41.06408 | 9.28933 | 13089 ft | 347 kts | 54° |
| 2026-05-07 20:30 | 41.07816 | 9.31609 | 13762 ft | 351 kts | 56° |
| 2026-05-07 20:31 | 41.09167 | 9.34271 | 14383 ft | 355 kts | 56° |
| 2026-05-07 20:31 | 41.10556 | 9.37007 | 15026 ft | 359 kts | 56° |
| 2026-05-07 20:31 | 41.11966 | 9.39755 | 15663 ft | 362 kts | 56° |
| 2026-05-07 20:31 | 41.13399 | 9.42523 | 16286 ft | 365 kts | 55° |
| 2026-05-07 20:32 | 41.14852 | 9.45314 | 16887 ft | 369 kts | 55° |
| 2026-05-07 20:32 | 41.16319 | 9.48126 | 17474 ft | 372 kts | 55° |
| 2026-05-07 20:32 | 41.17777 | 9.50982 | 18043 ft | 375 kts | 59° |
| 2026-05-07 20:32 | 41.18761 | 9.54202 | 18583 ft | 379 kts | 73° |
| 2026-05-07 20:33 | 41.19504 | 9.57569 | 19151 ft | 381 kts | 73° |
| 2026-05-07 20:33 | 41.20258 | 9.60966 | 19672 ft | 385 kts | 73° |
| 2026-05-07 20:33 | 41.21021 | 9.64341 | 20180 ft | 388 kts | 73° |
| 2026-05-07 20:33 | 41.21814 | 9.67789 | 20689 ft | 391 kts | 73° |
| 2026-05-07 20:34 | 41.22617 | 9.71251 | 21184 ft | 394 kts | 72° |
| 2026-05-07 20:34 | 41.23428 | 9.74733 | 21664 ft | 397 kts | 72° |
| 2026-05-07 20:34 | 41.24247 | 9.78256 | 22132 ft | 400 kts | 72° |
| 2026-05-07 20:34 | 41.25223 | 9.81732 | 22550 ft | 403 kts | 60° |
| 2026-05-07 20:35 | 41.26993 | 9.84614 | 22977 ft | 406 kts | 40° |
| 2026-05-07 20:35 | 41.29364 | 9.86658 | 23430 ft | 408 kts | 23° |
| 2026-05-07 20:35 | 41.32073 | 9.87821 | 23863 ft | 411 kts | 15° |
| 2026-05-07 20:35 | 41.34843 | 9.88795 | 24248 ft | 414 kts | 15° |
| 2026-05-07 20:36 | 41.37649 | 9.89746 | 24622 ft | 417 kts | 14° |
| 2026-05-07 20:36 | 41.40435 | 9.90695 | 25003 ft | 420 kts | 15° |
| 2026-05-07 20:36 | 41.43270 | 9.91679 | 25395 ft | 422 kts | 15° |
| 2026-05-07 20:36 | 41.46113 | 9.92685 | 25766 ft | 424 kts | 15° |
| 2026-05-07 20:37 | 41.48980 | 9.93712 | 26121 ft | 427 kts | 15° |
| 2026-05-07 20:37 | 41.51859 | 9.94751 | 26466 ft | 429 kts | 15° |
| 2026-05-07 20:37 | 41.54747 | 9.95797 | 26804 ft | 431 kts | 15° |
| 2026-05-07 20:37 | 41.57659 | 9.96854 | 27135 ft | 434 kts | 15° |
| 2026-05-07 20:38 | 41.60580 | 9.97914 | 27446 ft | 436 kts | 15° |
| 2026-05-07 20:38 | 41.63510 | 9.98978 | 27767 ft | 438 kts | 15° |
| 2026-05-07 20:38 | 41.66458 | 10.00049 | 28070 ft | 440 kts | 15° |
| 2026-05-07 20:38 | 41.69422 | 10.01127 | 28365 ft | 442 kts | 15° |
| 2026-05-07 20:39 | 41.72400 | 10.02210 | 28652 ft | 444 kts | 15° |
| 2026-05-07 20:39 | 41.75389 | 10.03299 | 28932 ft | 446 kts | 15° |
| 2026-05-07 20:39 | 41.78426 | 10.04188 | 29185 ft | 449 kts | 7° |
| 2026-05-07 20:39 | 41.81540 | 10.04443 | 29451 ft | 451 kts | 359° |
| 2026-05-07 20:40 | 41.84673 | 10.04048 | 29718 ft | 453 kts | 353° |
| 2026-05-07 20:40 | 41.87804 | 10.03460 | 29975 ft | 454 kts | 352° |
| 2026-05-07 20:40 | 41.90898 | 10.02849 | 30202 ft | 456 kts | 352° |
| 2026-05-07 20:40 | 41.94040 | 10.02230 | 30428 ft | 458 kts | 352° |
| 2026-05-07 20:41 | 41.97205 | 10.01620 | 30663 ft | 460 kts | 352° |
| 2026-05-07 20:41 | 42.00379 | 10.01023 | 30959 ft | 460 kts | 352° |
| 2026-05-07 20:41 | 42.03538 | 10.00439 | 31300 ft | 458 kts | 353° |
| 2026-05-07 20:41 | 42.06691 | 9.99862 | 31645 ft | 456 kts | 353° |
| 2026-05-07 20:42 | 42.09839 | 9.99289 | 31921 ft | 456 kts | 353° |
| 2026-05-07 20:42 | 42.12984 | 9.98716 | 32185 ft | 456 kts | 353° |
| 2026-05-07 20:42 | 42.16129 | 9.98143 | 32477 ft | 456 kts | 353° |
| 2026-05-07 20:42 | 42.19268 | 9.97570 | 32768 ft | 455 kts | 353° |
| 2026-05-07 20:43 | 42.22400 | 9.96997 | 33035 ft | 454 kts | 353° |
| 2026-05-07 20:43 | 42.25521 | 9.96425 | 33287 ft | 454 kts | 353° |
| 2026-05-07 20:43 | 42.28651 | 9.95851 | 33545 ft | 453 kts | 353° |
| 2026-05-07 20:43 | 42.31776 | 9.95277 | 33806 ft | 453 kts | 353° |
| 2026-05-07 20:44 | 42.34895 | 9.94704 | 34053 ft | 452 kts | 353° |
| 2026-05-07 20:44 | 42.38011 | 9.94130 | 34279 ft | 452 kts | 353° |
| 2026-05-07 20:44 | 42.41125 | 9.93557 | 34516 ft | 451 kts | 353° |
| 2026-05-07 20:44 | 42.44233 | 9.92983 | 34752 ft | 451 kts | 353° |
| 2026-05-07 20:45 | 42.47345 | 9.92409 | 34972 ft | 450 kts | 353° |
| 2026-05-07 20:45 | 42.50447 | 9.91836 | 35183 ft | 450 kts | 353° |
| 2026-05-07 20:45 | 42.53542 | 9.91264 | 35396 ft | 450 kts | 353° |
| 2026-05-07 20:45 | 42.56645 | 9.90689 | 35605 ft | 449 kts | 353° |
| 2026-05-07 20:46 | 42.59745 | 9.90114 | 35805 ft | 449 kts | 353° |
| 2026-05-07 20:46 | 42.62834 | 9.89541 | 35996 ft | 448 kts | 353° |
| 2026-05-07 20:46 | 42.65933 | 9.88966 | 36182 ft | 448 kts | 353° |
| 2026-05-07 20:46 | 42.69020 | 9.88392 | 36356 ft | 448 kts | 353° |
| 2026-05-07 20:47 | 42.72111 | 9.87817 | 36510 ft | 448 kts | 353° |
| 2026-05-07 20:47 | 42.75200 | 9.87241 | 36672 ft | 448 kts | 353° |
| 2026-05-07 20:47 | 42.78249 | 9.86673 | 36838 ft | 448 kts | 353° |
| 2026-05-07 20:47 | 42.81343 | 9.86175 | 36983 ft | 448 kts | 354° |
| 2026-05-07 20:48 | 42.84445 | 9.85776 | 37121 ft | 448 kts | 355° |
| 2026-05-07 20:48 | 42.87560 | 9.85413 | 37259 ft | 448 kts | 355° |
| 2026-05-07 20:48 | 42.90666 | 9.85055 | 37409 ft | 448 kts | 355° |
| 2026-05-07 20:48 | 42.93774 | 9.84688 | 37547 ft | 448 kts | 355° |
| 2026-05-07 20:49 | 42.96881 | 9.84309 | 37672 ft | 448 kts | 355° |
| 2026-05-07 20:49 | 42.99989 | 9.83920 | 37801 ft | 448 kts | 355° |
| 2026-05-07 20:49 | 43.03096 | 9.83526 | 37923 ft | 448 kts | 355° |
| 2026-05-07 20:50 | 43.09330 | 9.82729 | 37963 ft | 451 kts | 355° |
| 2026-05-07 20:50 | 43.15569 | 9.81928 | 37955 ft | 449 kts | 355° |
| 2026-05-07 20:51 | 43.21786 | 9.81129 | 37956 ft | 448 kts | 355° |
| 2026-05-07 20:51 | 43.27989 | 9.80332 | 37963 ft | 447 kts | 355° |
| 2026-05-07 20:52 | 43.34143 | 9.79539 | 37968 ft | 446 kts | 355° |
| 2026-05-07 20:52 | 43.40320 | 9.78741 | 37968 ft | 445 kts | 355° |
| 2026-05-07 20:53 | 43.46493 | 9.77943 | 37960 ft | 445 kts | 355° |
| 2026-05-07 20:53 | 43.52660 | 9.77101 | 37958 ft | 445 kts | 351° |
| 2026-05-07 20:54 | 43.58549 | 9.74472 | 37951 ft | 446 kts | 332° |
| 2026-05-07 20:54 | 43.63943 | 9.70217 | 37954 ft | 447 kts | 330° |
| 2026-05-07 20:55 | 43.69344 | 9.65921 | 37961 ft | 448 kts | 331° |
| 2026-05-07 20:55 | 43.74758 | 9.61711 | 37958 ft | 449 kts | 331° |
| 2026-05-07 20:56 | 43.80565 | 9.58610 | 37955 ft | 448 kts | 349° |
| 2026-05-07 20:56 | 43.85685 | 9.57368 | 37969 ft | 449 kts | 351° |
| 2026-05-07 20:57 | 43.91871 | 9.55963 | 37957 ft | 450 kts | 351° |
| 2026-05-07 20:57 | 43.98059 | 9.54508 | 37966 ft | 451 kts | 351° |
| 2026-05-07 20:58 | 44.04203 | 9.53018 | 37965 ft | 451 kts | 350° |
| 2026-05-07 20:58 | 44.10398 | 9.51498 | 37956 ft | 452 kts | 350° |
| 2026-05-07 20:59 | 44.16588 | 9.49974 | 37961 ft | 451 kts | 350° |
| 2026-05-07 20:59 | 44.22775 | 9.48449 | 37957 ft | 451 kts | 350° |
| 2026-05-07 21:00 | 44.28952 | 9.46925 | 37969 ft | 451 kts | 350° |
| 2026-05-07 21:00 | 44.35127 | 9.45398 | 37958 ft | 450 kts | 350° |
| 2026-05-07 21:01 | 44.41261 | 9.43877 | 37956 ft | 449 kts | 350° |
| 2026-05-07 21:01 | 44.47417 | 9.42349 | 37961 ft | 448 kts | 350° |
| 2026-05-07 21:02 | 44.53566 | 9.40818 | 37963 ft | 448 kts | 350° |
| 2026-05-07 21:02 | 44.59702 | 9.39287 | 37965 ft | 447 kts | 350° |
| 2026-05-07 21:03 | 44.65795 | 9.37764 | 37969 ft | 447 kts | 350° |
| 2026-05-07 21:03 | 44.71927 | 9.36229 | 37962 ft | 447 kts | 350° |
| 2026-05-07 21:04 | 44.78058 | 9.34689 | 37957 ft | 447 kts | 350° |
| 2026-05-07 21:04 | 44.84184 | 9.33148 | 37955 ft | 447 kts | 350° |
| 2026-05-07 21:05 | 44.90309 | 9.31604 | 37958 ft | 447 kts | 350° |
| 2026-05-07 21:05 | 44.96400 | 9.30065 | 37967 ft | 447 kts | 350° |
| 2026-05-07 21:06 | 45.02537 | 9.28511 | 37971 ft | 447 kts | 350° |
| 2026-05-07 21:06 | 45.08675 | 9.26953 | 37961 ft | 448 kts | 350° |
| 2026-05-07 21:07 | 45.14823 | 9.25389 | 37958 ft | 448 kts | 350° |
| 2026-05-07 21:07 | 45.20960 | 9.23825 | 37970 ft | 448 kts | 350° |
| 2026-05-07 21:08 | 45.27096 | 9.22257 | 37971 ft | 449 kts | 350° |
| 2026-05-07 21:08 | 45.33246 | 9.20683 | 37958 ft | 449 kts | 350° |
| 2026-05-07 21:09 | 45.39387 | 9.19107 | 37965 ft | 449 kts | 350° |
| 2026-05-07 21:09 | 45.45502 | 9.17535 | 37967 ft | 449 kts | 350° |
| 2026-05-07 21:10 | 45.51654 | 9.15949 | 37964 ft | 449 kts | 350° |
| 2026-05-07 21:10 | 45.57819 | 9.14356 | 37964 ft | 449 kts | 350° |
| 2026-05-07 21:11 | 45.63978 | 9.12763 | 37957 ft | 449 kts | 350° |
| 2026-05-07 21:11 | 45.73268 | 9.11102 | 37962 ft | 449 kts | 354° |
| 2026-05-07 21:12 | 45.79455 | 9.10176 | 37952 ft | 448 kts | 354° |
| 2026-05-07 21:12 | 45.85660 | 9.09186 | 37964 ft | 448 kts | 354° |
| 2026-05-07 21:13 | 45.91865 | 9.08170 | 37962 ft | 448 kts | 354° |
| 2026-05-07 21:13 | 45.98027 | 9.07161 | 37954 ft | 448 kts | 354° |
| 2026-05-07 21:14 | 46.04237 | 9.06168 | 37954 ft | 448 kts | 354° |
| 2026-05-07 21:14 | 46.10451 | 9.05185 | 37963 ft | 448 kts | 354° |
| 2026-05-07 21:15 | 46.16661 | 9.04198 | 37971 ft | 448 kts | 354° |
| 2026-05-07 21:15 | 46.22875 | 9.03343 | 37953 ft | 448 kts | 355° |
| 2026-05-07 21:16 | 46.29048 | 9.02535 | 37960 ft | 448 kts | 355° |
| 2026-05-07 21:16 | 46.35243 | 9.01698 | 37957 ft | 447 kts | 355° |
| 2026-05-07 21:17 | 46.41278 | 8.99647 | 37978 ft | 447 kts | 335° |
| 2026-05-07 21:17 | 46.43989 | 8.97443 | 37953 ft | 448 kts | 324° |
| 2026-05-07 21:17 | 46.46411 | 8.94594 | 37988 ft | 447 kts | 320° |
| 2026-05-07 21:18 | 46.51105 | 8.88640 | 37968 ft | 448 kts | 319° |
| 2026-05-07 21:18 | 46.55809 | 8.82657 | 37950 ft | 449 kts | 319° |
| 2026-05-07 21:19 | 46.60543 | 8.76700 | 37964 ft | 449 kts | 320° |
| 2026-05-07 21:19 | 46.65255 | 8.70795 | 37958 ft | 450 kts | 320° |
| 2026-05-07 21:20 | 46.70012 | 8.64827 | 37963 ft | 451 kts | 320° |
| 2026-05-07 21:20 | 46.74769 | 8.58842 | 37954 ft | 451 kts | 320° |
| 2026-05-07 21:21 | 46.79519 | 8.52850 | 37961 ft | 452 kts | 320° |
| 2026-05-07 21:21 | 46.84270 | 8.46842 | 37970 ft | 452 kts | 319° |
| 2026-05-07 21:22 | 46.89023 | 8.40818 | 37967 ft | 452 kts | 319° |
| 2026-05-07 21:22 | 46.93530 | 8.35090 | 37957 ft | 452 kts | 319° |
| 2026-05-07 21:23 | 46.98258 | 8.29072 | 38021 ft | 441 kts | 315° |
| 2026-05-07 21:23 | 47.00541 | 8.26166 | 37993 ft | 426 kts | 314° |
| 2026-05-07 21:23 | 47.02718 | 8.23389 | 38007 ft | 417 kts | 314° |
| 2026-05-07 21:24 | 47.07088 | 8.17792 | 38043 ft | 418 kts | 314° |
| 2026-05-07 21:24 | 47.11500 | 8.12122 | 38053 ft | 424 kts | 314° |
| 2026-05-07 21:25 | 47.15965 | 8.06377 | 38056 ft | 428 kts | 314° |
| 2026-05-07 21:25 | 47.20378 | 8.00690 | 38061 ft | 432 kts | 314° |
| 2026-05-07 21:26 | 47.24911 | 7.94838 | 38053 ft | 434 kts | 314° |
| 2026-05-07 21:26 | 47.29397 | 7.89037 | 38045 ft | 428 kts | 315° |
| 2026-05-07 21:27 | 47.33833 | 7.83281 | 38052 ft | 423 kts | 314° |
| 2026-05-07 21:27 | 47.38238 | 7.77548 | 38064 ft | 421 kts | 314° |
| 2026-05-07 21:28 | 47.42599 | 7.71862 | 38063 ft | 420 kts | 314° |
| 2026-05-07 21:28 | 47.46312 | 7.65410 | 38081 ft | 411 kts | 296° |
| 2026-05-07 21:29 | 47.48300 | 7.57556 | 38092 ft | 407 kts | 282° |
| 2026-05-07 21:29 | 47.49618 | 7.49393 | 38079 ft | 409 kts | 281° |
| 2026-05-07 21:30 | 47.50930 | 7.41224 | 38078 ft | 412 kts | 281° |
| 2026-05-07 21:30 | 47.52279 | 7.32964 | 38075 ft | 415 kts | 281° |
| 2026-05-07 21:31 | 47.53644 | 7.24640 | 38070 ft | 417 kts | 281° |
| 2026-05-07 21:31 | 47.55012 | 7.16280 | 38059 ft | 419 kts | 281° |
| 2026-05-07 21:32 | 47.56383 | 7.07876 | 38051 ft | 420 kts | 281° |
| 2026-05-07 21:32 | 47.57737 | 6.99521 | 38039 ft | 419 kts | 281° |
| 2026-05-07 21:33 | 47.59089 | 6.91136 | 38031 ft | 418 kts | 281° |
| 2026-05-07 21:33 | 47.60431 | 6.82773 | 38021 ft | 416 kts | 281° |
| 2026-05-07 21:34 | 47.61759 | 6.74446 | 38026 ft | 414 kts | 281° |
| 2026-05-07 21:34 | 47.63075 | 6.66159 | 38026 ft | 412 kts | 281° |
| 2026-05-07 21:35 | 47.64378 | 6.57906 | 38030 ft | 410 kts | 281° |
| 2026-05-07 21:35 | 47.65668 | 6.49703 | 38038 ft | 409 kts | 281° |
| 2026-05-07 21:36 | 47.66945 | 6.41537 | 38045 ft | 408 kts | 281° |
| 2026-05-07 21:36 | 47.68226 | 6.33312 | 38048 ft | 409 kts | 281° |
| 2026-05-07 21:37 | 47.69680 | 6.25127 | 38047 ft | 411 kts | 285° |
| 2026-05-07 21:37 | 47.71417 | 6.17069 | 38051 ft | 413 kts | 285° |
| 2026-05-07 21:38 | 47.73165 | 6.08992 | 38049 ft | 415 kts | 285° |
| 2026-05-07 21:38 | 47.74888 | 6.00890 | 38048 ft | 417 kts | 285° |
| 2026-05-07 21:39 | 47.76623 | 5.92657 | 38055 ft | 418 kts | 285° |
| 2026-05-07 21:39 | 47.78347 | 5.84424 | 38051 ft | 419 kts | 285° |
| 2026-05-07 21:40 | 47.80076 | 5.76133 | 38052 ft | 420 kts | 285° |
| 2026-05-07 21:40 | 47.81511 | 5.69224 | 38057 ft | 420 kts | 284° |
| 2026-05-07 21:41 | 47.83191 | 5.61103 | 38054 ft | 419 kts | 284° |
| 2026-05-07 21:41 | 47.84899 | 5.52816 | 38047 ft | 419 kts | 284° |
| 2026-05-07 21:42 | 47.86602 | 5.44519 | 38045 ft | 417 kts | 284° |
| 2026-05-07 21:42 | 47.88293 | 5.36253 | 38055 ft | 416 kts | 284° |
| 2026-05-07 21:43 | 47.90045 | 5.28093 | 38054 ft | 417 kts | 291° |
| 2026-05-07 21:43 | 47.93081 | 5.20645 | 38044 ft | 423 kts | 307° |
| 2026-05-07 21:44 | 47.97015 | 5.14188 | 38042 ft | 424 kts | 309° |
| 2026-05-07 21:44 | 48.01013 | 5.07727 | 38047 ft | 423 kts | 309° |
| 2026-05-07 21:45 | 48.04966 | 5.01252 | 38047 ft | 424 kts | 309° |
| 2026-05-07 21:45 | 48.08925 | 4.94705 | 38045 ft | 424 kts | 308° |
| 2026-05-07 21:46 | 48.12882 | 4.88138 | 38051 ft | 425 kts | 308° |
| 2026-05-07 21:46 | 48.16852 | 4.81532 | 38067 ft | 426 kts | 308° |
| 2026-05-07 21:47 | 48.20804 | 4.74943 | 38063 ft | 427 kts | 308° |
| 2026-05-07 21:47 | 48.24784 | 4.68289 | 38066 ft | 428 kts | 308° |
| 2026-05-07 21:48 | 48.28764 | 4.61617 | 38064 ft | 429 kts | 308° |
| 2026-05-07 21:48 | 48.32708 | 4.54971 | 38063 ft | 430 kts | 308° |
| 2026-05-07 21:49 | 48.36688 | 4.48243 | 38065 ft | 429 kts | 308° |
| 2026-05-07 21:49 | 48.40652 | 4.41514 | 38061 ft | 429 kts | 308° |
| 2026-05-07 21:50 | 48.44598 | 4.34802 | 38063 ft | 429 kts | 308° |
| 2026-05-07 21:50 | 48.48526 | 4.28114 | 38063 ft | 428 kts | 308° |
| 2026-05-07 21:51 | 48.52468 | 4.21386 | 38063 ft | 427 kts | 308° |
| 2026-05-07 21:51 | 48.56398 | 4.14661 | 38067 ft | 427 kts | 308° |
| 2026-05-07 21:52 | 48.60298 | 4.07969 | 38062 ft | 426 kts | 308° |
| 2026-05-07 21:52 | 48.64199 | 4.01259 | 38068 ft | 426 kts | 308° |
| 2026-05-07 21:53 | 48.68109 | 3.94518 | 38068 ft | 426 kts | 308° |
| 2026-05-07 21:53 | 48.71988 | 3.87812 | 38076 ft | 426 kts | 308° |
| 2026-05-07 21:54 | 48.76119 | 3.81352 | 38081 ft | 428 kts | 312° |
| 2026-05-07 21:54 | 48.80413 | 3.75070 | 38070 ft | 429 kts | 312° |
| 2026-05-07 21:55 | 48.84708 | 3.68763 | 38080 ft | 430 kts | 312° |
| 2026-05-07 21:55 | 48.88980 | 3.62415 | 38075 ft | 430 kts | 312° |
| 2026-05-07 21:56 | 48.93254 | 3.56011 | 38075 ft | 431 kts | 312° |
| 2026-05-07 21:56 | 48.97535 | 3.49581 | 38073 ft | 432 kts | 312° |
| 2026-05-07 21:57 | 49.01799 | 3.43163 | 38076 ft | 433 kts | 312° |
| 2026-05-07 21:57 | 49.06090 | 3.36687 | 38072 ft | 434 kts | 312° |
| 2026-05-07 21:58 | 49.10387 | 3.30184 | 38074 ft | 435 kts | 312° |
| 2026-05-07 21:58 | 49.14682 | 3.23672 | 38074 ft | 435 kts | 311° |
| 2026-05-07 21:59 | 49.18944 | 3.17191 | 38071 ft | 435 kts | 311° |
| 2026-05-07 21:59 | 49.23229 | 3.10656 | 38077 ft | 434 kts | 311° |
| 2026-05-07 22:00 | 49.27504 | 3.04115 | 38073 ft | 434 kts | 311° |
| 2026-05-07 22:00 | 49.31777 | 2.97568 | 38070 ft | 434 kts | 311° |
| 2026-05-07 22:01 | 49.36005 | 2.91073 | 38071 ft | 433 kts | 311° |
| 2026-05-07 22:01 | 49.40258 | 2.84515 | 38073 ft | 432 kts | 311° |
| 2026-05-07 22:02 | 49.44493 | 2.77976 | 38075 ft | 432 kts | 311° |
| 2026-05-07 22:02 | 49.48725 | 2.71425 | 38076 ft | 432 kts | 311° |
| 2026-05-07 22:03 | 49.52949 | 2.64862 | 38073 ft | 432 kts | 311° |
| 2026-05-07 22:03 | 49.57167 | 2.58301 | 38072 ft | 432 kts | 311° |
| 2026-05-07 22:04 | 49.61430 | 2.51844 | 38064 ft | 434 kts | 317° |
| 2026-05-07 22:04 | 49.66238 | 2.46149 | 38073 ft | 436 kts | 320° |
| 2026-05-07 22:05 | 49.71116 | 2.40578 | 38074 ft | 436 kts | 320° |
| 2026-05-07 22:05 | 49.75969 | 2.34935 | 38078 ft | 436 kts | 320° |
| 2026-05-07 22:06 | 49.80808 | 2.29233 | 38077 ft | 437 kts | 319° |
| 2026-05-07 22:06 | 49.85605 | 2.23553 | 38077 ft | 437 kts | 319° |
| 2026-05-07 22:07 | 49.90455 | 2.17796 | 38078 ft | 438 kts | 319° |
| 2026-05-07 22:07 | 49.95277 | 2.12058 | 38071 ft | 439 kts | 319° |
| 2026-05-07 22:08 | 50.00124 | 2.06274 | 38079 ft | 439 kts | 319° |
| 2026-05-07 22:08 | 50.04968 | 2.00480 | 38072 ft | 440 kts | 319° |
| 2026-05-07 22:09 | 50.09815 | 1.94667 | 38076 ft | 440 kts | 319° |
| 2026-05-07 22:09 | 50.14671 | 1.88831 | 38082 ft | 440 kts | 319° |
| 2026-05-07 22:10 | 50.19343 | 1.82786 | 38082 ft | 437 kts | 313° |
| 2026-05-07 22:10 | 50.23671 | 1.76121 | 38080 ft | 436 kts | 311° |
| 2026-05-07 22:11 | 50.27959 | 1.69431 | 38079 ft | 435 kts | 312° |
| 2026-05-07 22:11 | 50.32273 | 1.62792 | 38079 ft | 435 kts | 313° |
| 2026-05-07 22:12 | 50.36569 | 1.56210 | 38073 ft | 434 kts | 313° |
| 2026-05-07 22:12 | 50.40888 | 1.49582 | 38077 ft | 434 kts | 313° |
| 2026-05-07 22:13 | 50.45195 | 1.42944 | 38072 ft | 434 kts | 313° |
| 2026-05-07 22:13 | 50.49497 | 1.36298 | 38078 ft | 434 kts | 312° |
| 2026-05-07 22:14 | 50.53574 | 1.29442 | 38086 ft | 432 kts | 309° |
| 2026-05-07 22:14 | 50.57450 | 1.22751 | 38079 ft | 433 kts | 310° |
| 2026-05-07 22:15 | 50.61602 | 1.16029 | 38094 ft | 434 kts | 312° |
| 2026-05-07 22:15 | 50.65619 | 1.09769 | 38099 ft | 434 kts | 312° |
| 2026-05-07 22:16 | 50.69785 | 1.03216 | 38094 ft | 435 kts | 312° |
| 2026-05-07 22:16 | 50.74009 | 0.96504 | 38098 ft | 435 kts | 312° |
| 2026-05-07 22:17 | 50.78273 | 0.89699 | 38099 ft | 436 kts | 312° |
| 2026-05-07 22:17 | 50.82538 | 0.82875 | 38108 ft | 436 kts | 311° |
| 2026-05-07 22:18 | 50.88942 | 0.72623 | 38085 ft | 437 kts | 312° |
| 2026-05-07 22:18 | 50.91099 | 0.69183 | 37744 ft | 441 kts | 312° |
| 2026-05-07 22:19 | 50.93253 | 0.65747 | 37402 ft | 436 kts | 312° |
| 2026-05-07 22:19 | 50.95376 | 0.62350 | 37010 ft | 431 kts | 312° |
| 2026-05-07 22:19 | 50.97473 | 0.58986 | 36633 ft | 427 kts | 311° |
| 2026-05-07 22:19 | 50.99538 | 0.55632 | 36257 ft | 422 kts | 311° |
| 2026-05-07 22:20 | 51.01576 | 0.52297 | 35868 ft | 418 kts | 311° |
| 2026-05-07 22:20 | 51.03566 | 0.49038 | 35483 ft | 415 kts | 311° |
| 2026-05-07 22:20 | 51.05569 | 0.45757 | 35078 ft | 412 kts | 311° |
| 2026-05-07 22:20 | 51.07567 | 0.42503 | 34706 ft | 409 kts | 312° |
| 2026-05-07 22:21 | 51.09607 | 0.39349 | 34330 ft | 407 kts | 313° |
| 2026-05-07 22:21 | 51.11654 | 0.36265 | 33955 ft | 404 kts | 313° |
| 2026-05-07 22:21 | 51.13695 | 0.33205 | 33572 ft | 401 kts | 313° |
| 2026-05-07 22:21 | 51.15711 | 0.30166 | 33193 ft | 398 kts | 313° |
| 2026-05-07 22:22 | 51.17709 | 0.27134 | 32826 ft | 394 kts | 313° |
| 2026-05-07 22:22 | 51.19688 | 0.24116 | 32451 ft | 391 kts | 313° |
| 2026-05-07 22:22 | 51.21651 | 0.21114 | 32086 ft | 389 kts | 313° |
| 2026-05-07 22:22 | 51.23592 | 0.18137 | 31720 ft | 386 kts | 313° |
| 2026-05-07 22:23 | 51.25515 | 0.15183 | 31367 ft | 383 kts | 313° |
| 2026-05-07 22:23 | 51.27437 | 0.12231 | 30997 ft | 380 kts | 313° |
| 2026-05-07 22:23 | 51.29332 | 0.09316 | 30644 ft | 378 kts | 313° |
| 2026-05-07 22:23 | 51.31215 | 0.06415 | 30290 ft | 375 kts | 313° |
| 2026-05-07 22:24 | 51.33133 | 0.03590 | 29930 ft | 374 kts | 318° |
| 2026-05-07 22:24 | 51.35262 | 0.01297 | 29629 ft | 372 kts | 326° |
| 2026-05-07 22:24 | 51.37486 | -0.00792 | 29258 ft | 370 kts | 326° |
| 2026-05-07 22:24 | 51.39708 | -0.02853 | 28886 ft | 368 kts | 327° |
| 2026-05-07 22:25 | 51.41918 | -0.04912 | 28505 ft | 366 kts | 327° |
| 2026-05-07 22:25 | 51.44103 | -0.06963 | 28150 ft | 363 kts | 326° |
| 2026-05-07 22:25 | 51.46276 | -0.09016 | 27798 ft | 361 kts | 326° |
| 2026-05-07 22:25 | 51.47734 | -0.10400 | 27555 ft | 360 kts | 326° |
| 2026-05-07 22:26 | 51.49855 | -0.12419 | 27202 ft | 358 kts | 326° |
| 2026-05-07 22:26 | 51.51990 | -0.14457 | 26850 ft | 356 kts | 326° |
| 2026-05-07 22:26 | 51.54118 | -0.16493 | 26494 ft | 355 kts | 326° |
| 2026-05-07 22:26 | 51.56238 | -0.18522 | 26136 ft | 353 kts | 326° |
| 2026-05-07 22:27 | 51.58340 | -0.20537 | 25782 ft | 351 kts | 326° |
| 2026-05-07 22:27 | 51.60422 | -0.22535 | 25427 ft | 349 kts | 326° |
| 2026-05-07 22:27 | 51.62508 | -0.24538 | 25080 ft | 348 kts | 326° |
| 2026-05-07 22:27 | 51.64582 | -0.26531 | 24730 ft | 346 kts | 326° |
| 2026-05-07 22:28 | 51.66650 | -0.28519 | 24381 ft | 345 kts | 326° |
| 2026-05-07 22:28 | 51.68713 | -0.30495 | 24033 ft | 343 kts | 326° |
| 2026-05-07 22:28 | 51.70762 | -0.32454 | 23686 ft | 342 kts | 326° |
| 2026-05-07 22:28 | 51.72803 | -0.34408 | 23348 ft | 340 kts | 326° |
| 2026-05-07 22:29 | 51.74828 | -0.36349 | 23012 ft | 338 kts | 327° |
| 2026-05-07 22:29 | 51.76821 | -0.38262 | 22683 ft | 336 kts | 326° |
| 2026-05-07 22:29 | 51.78812 | -0.40176 | 22355 ft | 335 kts | 326° |
| 2026-05-07 22:29 | 51.80833 | -0.42123 | 22023 ft | 333 kts | 326° |
| 2026-05-07 22:30 | 51.82774 | -0.44010 | 21733 ft | 332 kts | 326° |
| 2026-05-07 22:30 | 51.84756 | -0.45946 | 21435 ft | 332 kts | 326° |
| 2026-05-07 22:30 | 51.86737 | -0.47886 | 21145 ft | 334 kts | 326° |
| 2026-05-07 22:30 | 51.88735 | -0.49843 | 20858 ft | 336 kts | 326° |
| 2026-05-07 22:31 | 51.90739 | -0.51806 | 20567 ft | 336 kts | 326° |
| 2026-05-07 22:31 | 51.92740 | -0.53768 | 20253 ft | 335 kts | 326° |
| 2026-05-07 22:31 | 51.94731 | -0.55722 | 19960 ft | 334 kts | 326° |
| 2026-05-07 22:31 | 51.96667 | -0.57615 | 19667 ft | 334 kts | 326° |
| 2026-05-07 22:32 | 51.98709 | -0.59609 | 19362 ft | 333 kts | 327° |
| 2026-05-07 22:32 | 52.00689 | -0.61545 | 19061 ft | 332 kts | 327° |
| 2026-05-07 22:32 | 52.02663 | -0.63477 | 18777 ft | 331 kts | 327° |
| 2026-05-07 22:32 | 52.04635 | -0.65410 | 18489 ft | 330 kts | 327° |
| 2026-05-07 22:33 | 52.06570 | -0.67308 | 18192 ft | 327 kts | 327° |
| 2026-05-07 22:33 | 52.08510 | -0.69213 | 17899 ft | 324 kts | 326° |
| 2026-05-07 22:33 | 52.10429 | -0.71098 | 17617 ft | 321 kts | 326° |
| 2026-05-07 22:33 | 52.12329 | -0.72970 | 17331 ft | 318 kts | 326° |
| 2026-05-07 22:34 | 52.14212 | -0.74828 | 17051 ft | 315 kts | 326° |
| 2026-05-07 22:34 | 52.16077 | -0.76670 | 16775 ft | 312 kts | 326° |
| 2026-05-07 22:34 | 52.17928 | -0.78498 | 16500 ft | 310 kts | 326° |
| 2026-05-07 22:34 | 52.19767 | -0.80315 | 16228 ft | 308 kts | 326° |
| 2026-05-07 22:35 | 52.21594 | -0.82124 | 15959 ft | 306 kts | 326° |
| 2026-05-07 22:35 | 52.23404 | -0.83963 | 15695 ft | 306 kts | 320° |
| 2026-05-07 22:35 | 52.24916 | -0.86382 | 15427 ft | 305 kts | 313° |
| 2026-05-07 22:35 | 52.26561 | -0.88589 | 15167 ft | 307 kts | 321° |
| 2026-05-07 22:36 | 52.28266 | -0.90684 | 14958 ft | 306 kts | 321° |
| 2026-05-07 22:36 | 52.29969 | -0.92784 | 14765 ft | 306 kts | 320° |
| 2026-05-07 22:36 | 52.31665 | -0.94880 | 14583 ft | 307 kts | 321° |
| 2026-05-07 22:36 | 52.33370 | -0.97004 | 14402 ft | 308 kts | 320° |
| 2026-05-07 22:37 | 52.35075 | -0.99099 | 14258 ft | 306 kts | 321° |
| 2026-05-07 22:37 | 52.36750 | -1.01204 | 14121 ft | 300 kts | 320° |
| 2026-05-07 22:37 | 52.38396 | -1.03279 | 14019 ft | 299 kts | 320° |
| 2026-05-07 22:37 | 52.40069 | -1.05343 | 13927 ft | 303 kts | 320° |
| 2026-05-07 22:38 | 52.41750 | -1.07416 | 13686 ft | 307 kts | 320° |
| 2026-05-07 22:38 | 52.43458 | -1.09526 | 13432 ft | 308 kts | 320° |
| 2026-05-07 22:38 | 52.45173 | -1.11646 | 13193 ft | 308 kts | 320° |
| 2026-05-07 22:38 | 52.46896 | -1.13778 | 12933 ft | 304 kts | 320° |
| 2026-05-07 22:39 | 52.48557 | -1.15835 | 12657 ft | 301 kts | 320° |
| 2026-05-07 22:39 | 52.50241 | -1.17923 | 12152 ft | 306 kts | 320° |
| 2026-05-07 22:39 | 52.51957 | -1.20057 | 11660 ft | 310 kts | 321° |
| 2026-05-07 22:39 | 52.53688 | -1.22219 | 11171 ft | 314 kts | 321° |
| 2026-05-07 22:40 | 52.55435 | -1.24419 | 10671 ft | 318 kts | 321° |
| 2026-05-07 22:40 | 52.57192 | -1.26653 | 10181 ft | 320 kts | 321° |
| 2026-05-07 22:40 | 52.58955 | -1.28916 | 9686 ft | 322 kts | 321° |
| 2026-05-07 22:40 | 52.60725 | -1.31211 | 9188 ft | 324 kts | 321° |
| 2026-05-07 22:41 | 52.62495 | -1.33527 | 8693 ft | 326 kts | 320° |
| 2026-05-07 22:41 | 52.64228 | -1.35806 | 8456 ft | 318 kts | 320° |
| 2026-05-07 22:41 | 52.65936 | -1.38052 | 8205 ft | 311 kts | 320° |
| 2026-05-07 22:41 | 52.67629 | -1.40278 | 7950 ft | 306 kts | 320° |
| 2026-05-07 22:42 | 52.69261 | -1.42424 | 7700 ft | 301 kts | 320° |
| 2026-05-07 22:42 | 52.70878 | -1.44556 | 7443 ft | 297 kts | 320° |
| 2026-05-07 22:42 | 52.72482 | -1.46667 | 7187 ft | 293 kts | 320° |
| 2026-05-07 22:42 | 52.73918 | -1.48994 | 6924 ft | 286 kts | 301° |
| 2026-05-07 22:43 | 52.74599 | -1.52000 | 6662 ft | 278 kts | 274° |
| 2026-05-07 22:43 | 52.74378 | -1.55078 | 6400 ft | 266 kts | 247° |
| 2026-05-07 22:43 | 52.73623 | -1.57788 | 6159 ft | 255 kts | 241° |
| 2026-05-07 22:43 | 52.72825 | -1.60345 | 5893 ft | 247 kts | 240° |
| 2026-05-07 22:44 | 52.72035 | -1.62838 | 5645 ft | 244 kts | 240° |
| 2026-05-07 22:44 | 52.71250 | -1.65310 | 5388 ft | 242 kts | 240° |
| 2026-05-07 22:44 | 52.70468 | -1.67760 | 5146 ft | 241 kts | 240° |
| 2026-05-07 22:44 | 52.69691 | -1.70196 | 4893 ft | 239 kts | 240° |
| 2026-05-07 22:45 | 52.68918 | -1.72620 | 4644 ft | 238 kts | 240° |
| 2026-05-07 22:45 | 52.68159 | -1.74987 | 4397 ft | 237 kts | 240° |
| 2026-05-07 22:45 | 52.67320 | -1.77302 | 4144 ft | 234 kts | 232° |
| 2026-05-07 22:45 | 52.66727 | -1.78615 | 3984 ft | 233 kts | 231° |
| 2026-05-07 22:46 | 52.65727 | -1.80755 | 3771 ft | 230 kts | 230° |
| 2026-05-07 22:46 | 52.64766 | -1.82795 | 3531 ft | 222 kts | 230° |
| 2026-05-07 22:46 | 52.63823 | -1.84798 | 3281 ft | 214 kts | 230° |
| 2026-05-07 22:46 | 52.62927 | -1.86706 | 3018 ft | 208 kts | 230° |
| 2026-05-07 22:47 | 52.62037 | -1.88511 | 2748 ft | 202 kts | 224° |
| 2026-05-07 22:47 | 52.61005 | -1.90004 | 2573 ft | 201 kts | 208° |
| 2026-05-07 22:47 | 52.59664 | -1.90360 | 2537 ft | 199 kts | 164° |
| 2026-05-07 22:47 | 52.58461 | -1.89259 | 2534 ft | 200 kts | 147° |
| 2026-05-07 22:48 | 52.57292 | -1.88027 | 2527 ft | 198 kts | 148° |
| 2026-05-07 22:48 | 52.56173 | -1.86813 | 2511 ft | 182 kts | 147° |
| 2026-05-07 22:48 | 52.55190 | -1.85720 | 2383 ft | 166 kts | 147° |
| 2026-05-07 22:48 | 52.54871 | -1.85364 | 2313 ft | 162 kts | 147° |
| 2026-05-07 22:49 | 52.52643 | -1.82885 | 1844 ft | 141 kts | 147° |
| 2026-05-07 22:49 | 52.51835 | -1.81986 | 1645 ft | 140 kts | 146° |
| 2026-05-07 22:49 | 52.51033 | -1.81091 | 1441 ft | 137 kts | 146° |
| 2026-05-07 22:50 | 52.50247 | -1.80217 | 1274 ft | 137 kts | 146° |
| 2026-05-07 22:50 | 52.49469 | -1.79359 | 1079 ft | 133 kts | 146° |
| 2026-05-07 22:50 | 52.48689 | -1.78507 | 859 ft | 135 kts | 146° |
| 2026-05-07 22:50 | 52.47928 | -1.77631 | 724 ft | 133 kts | 145° |
| 2026-05-07 22:51 | 52.47161 | -1.76778 | 559 ft | 134 kts | 146° |
| 2026-05-07 22:51 | 52.46395 | -1.75924 | 365 ft | 131 kts | 146° |
| 2026-05-07 22:51 | 52.45683 | -1.75132 | 320 ft | 109 kts | 144° |
| 2026-05-07 22:51 | 52.45184 | -1.74575 | 326 ft | 67 kts | 145° |
| 2026-05-07 22:52 | 52.44949 | -1.74301 | 326 ft | 17 kts | 119° |
| 2026-05-07 22:52 | 52.44966 | -1.74123 | 325 ft | 12 kts | 76° |
| 2026-05-07 22:52 | 52.44985 | -1.73998 | 323 ft | 11 kts | 76° |
| 2026-05-07 22:52 | 52.45008 | -1.73904 | 323 ft | 11 kts | 58° |
| 2026-05-07 22:53 | 52.45043 | -1.73813 | 322 ft | 10 kts | 67° |
| 2026-05-07 22:53 | 52.45016 | -1.73722 | 322 ft | 10 kts | 146° |
| 2026-05-07 22:53 | 52.44952 | -1.73652 | 322 ft | 11 kts | 146° |
| 2026-05-07 22:53 | 52.44902 | -1.73572 | 322 ft | 11 kts | 113° |
| 2026-05-07 22:54 | 52.44915 | -1.73473 | 322 ft | 11 kts | 53° |
| 2026-05-07 22:54 | 52.44952 | -1.73384 | 322 ft | 10 kts | 56° |
| 2026-05-07 22:54 | 52.44992 | -1.73287 | 322 ft | 10 kts | 56° |
| 2026-05-07 22:54 | 52.45009 | -1.73215 | 322 ft | 7 kts | 119° |
| 2026-05-07 22:55 | 52.44984 | -1.73189 | 322 ft | 3 kts | 146° |
| 2026-05-07 22:55 | 52.44975 | -1.73180 | 323 ft | 0 kts | 146° |
| 2026-05-07 22:55 | 52.44975 | -1.73179 | 323 ft | 0 kts | 146° |
| 2026-05-07 22:57 | 52.44975 | -1.73180 | 322 ft | 0 kts | 146° |